Time;durP1;ratioP1;P1;durP2;ratioP2;P2;SDS_P1;SDS_P2;PMS_P1;PMS_P2;Temp;Humidity;BMP_temperature;BMP_pressure;BME280_temperature;BME280_humidity;BME280_pressure;Samples;Min_cycle;Max_cycle;Signal;HPM_P1;HPM_P2
2021/11/06 00:01:57;;;;;;;23.17;19.07;;;7.10;99.90;;;;;;5005291;28;20546;-59
2021/11/06 00:04:23;;;;;;;20.57;16.17;;;7.00;99.90;;;;;;5016424;28;20167;-59
2021/11/06 00:06:49;;;;;;;17.57;14.97;;;7.10;99.90;;;;;;5016027;28;20191;-60
2021/11/06 00:09:14;;;;;;;21.23;17.10;;;7.00;99.90;;;;;;5016172;28;20168;-59
2021/11/06 00:11:40;;;;;;;23.93;18.67;;;7.00;99.90;;;;;;5015947;28;20186;-59
2021/11/06 00:14:06;;;;;;;24.77;17.70;;;7.00;99.90;;;;;;5016698;28;20492;-59
2021/11/06 00:16:31;;;;;;;24.00;19.93;;;6.90;99.90;;;;;;5016015;28;20168;-59
2021/11/06 00:18:57;;;;;;;20.00;17.07;;;6.90;99.90;;;;;;4993949;28;20553;-60
2021/11/06 00:21:22;;;;;;;20.30;16.87;;;6.90;99.90;;;;;;4984209;28;20199;-60
2021/11/06 00:23:48;;;;;;;21.17;18.37;;;6.80;99.90;;;;;;5000125;28;20188;-59
2021/11/06 00:26:14;;;;;;;24.10;18.90;;;6.80;99.90;;;;;;4996024;28;20229;-59
2021/11/06 00:28:39;;;;;;;20.87;16.93;;;6.80;99.90;;;;;;4996105;28;20165;-59
2021/11/06 00:31:05;;;;;;;21.17;17.57;;;6.80;99.90;;;;;;4996025;28;20177;-60
2021/11/06 00:33:31;;;;;;;22.07;18.77;;;6.90;99.90;;;;;;4996210;28;20197;-59
2021/11/06 00:35:56;;;;;;;28.57;21.13;;;6.80;99.90;;;;;;4996349;28;20256;-59
2021/11/06 00:38:22;;;;;;;24.43;18.70;;;6.80;99.90;;;;;;4995509;28;20192;-59
2021/11/06 00:40:47;;;;;;;27.40;21.90;;;6.70;99.90;;;;;;4996230;28;20171;-60
2021/11/06 00:43:13;;;;;;;24.17;19.57;;;6.60;99.90;;;;;;4995714;28;20200;-60
2021/11/06 00:45:39;;;;;;;25.53;21.57;;;6.60;99.90;;;;;;4996013;28;20180;-60
2021/11/06 00:48:04;;;;;;;24.63;20.30;;;6.60;99.90;;;;;;4995719;28;20223;-59
2021/11/06 00:50:30;;;;;;;25.70;19.93;;;6.50;99.90;;;;;;4995674;28;20713;-60
2021/11/06 00:52:56;;;;;;;23.10;17.93;;;6.50;99.90;;;;;;5007508;28;20199;-60
2021/11/06 00:55:22;;;;;;;26.27;20.03;;;6.40;99.90;;;;;;5015988;28;20168;-60
2021/11/06 00:57:48;;;;;;;21.20;18.30;;;6.60;99.90;;;;;;5015394;28;20419;-60
2021/11/06 01:00:17;;;;;;;21.70;18.67;;;6.60;99.90;;;;;;4983710;28;20425;-60
2021/11/06 01:02:43;;;;;;;21.10;16.30;;;6.60;99.90;;;;;;4994398;28;20446;-60
2021/11/06 01:05:10;;;;;;;21.20;17.57;;;6.60;99.90;;;;;;4995415;28;20403;-60
2021/11/06 01:07:36;;;;;;;23.40;17.77;;;6.50;99.90;;;;;;4994664;28;20189;-60
2021/11/06 01:10:05;;;;;;;22.13;18.30;;;6.50;99.90;;;;;;4995271;28;20414;-60
2021/11/06 01:12:30;;;;;;;27.70;19.80;;;6.50;99.90;;;;;;4994348;28;20181;-60
2021/11/06 01:14:56;;;;;;;21.47;18.13;;;6.40;99.90;;;;;;4994873;28;20404;-60
2021/11/06 01:17:22;;;;;;;23.13;17.70;;;6.50;99.90;;;;;;4995314;28;20227;-60
2021/11/06 01:19:47;;;;;;;22.87;18.80;;;6.50;99.90;;;;;;4995555;28;20200;-60
2021/11/06 01:22:13;;;;;;;28.07;21.33;;;6.50;99.90;;;;;;4998186;28;20208;-60
2021/11/06 01:24:39;;;;;;;21.93;19.17;;;6.50;99.90;;;;;;5014705;28;20581;-60
2021/11/06 01:27:05;;;;;;;22.67;18.00;;;6.40;99.90;;;;;;5014491;28;20218;-59
2021/11/06 01:29:31;;;;;;;21.77;18.00;;;6.50;99.90;;;;;;5014601;28;20233;-60
2021/11/06 01:31:56;;;;;;;20.70;17.00;;;6.40;99.90;;;;;;5014508;28;20801;-58
2021/11/06 01:34:22;;;;;;;26.40;20.27;;;6.40;99.90;;;;;;5014450;28;20168;-59
2021/11/06 01:36:48;;;;;;;19.60;16.37;;;6.40;99.90;;;;;;5014433;28;20408;-59
2021/11/06 01:39:13;;;;;;;28.00;20.77;;;6.30;99.90;;;;;;5014254;28;20260;-58
2021/11/06 01:41:39;;;;;;;20.47;16.63;;;6.30;99.90;;;;;;5014605;28;20608;-59
2021/11/06 01:44:05;;;;;;;27.33;21.50;;;6.40;99.90;;;;;;5014471;28;20167;-60
2021/11/06 01:46:31;;;;;;;18.33;16.30;;;6.30;99.90;;;;;;5014349;28;20537;-58
2021/11/06 01:48:57;;;;;;;27.03;19.70;;;6.30;99.90;;;;;;5014321;28;20173;-60
2021/11/06 01:51:23;;;;;;;23.73;18.03;;;6.30;99.90;;;;;;5014085;28;20399;-60
2021/11/06 01:53:49;;;;;;;22.23;17.67;;;6.30;99.90;;;;;;5013732;28;20832;-60
2021/11/06 01:56:15;;;;;;;20.97;17.17;;;6.30;99.90;;;;;;5014490;28;20200;-59
2021/11/06 01:58:43;;;;;;;24.83;18.80;;;6.40;99.90;;;;;;5014597;28;20173;-59
2021/11/06 02:01:09;;;;;;;23.40;18.80;;;6.40;99.90;;;;;;5012636;28;20415;-61
2021/11/06 02:03:35;;;;;;;24.20;19.80;;;6.30;99.90;;;;;;5013987;28;20793;-58
2021/11/06 02:06:01;;;;;;;26.87;20.60;;;6.20;99.90;;;;;;4995358;28;20433;-57
2021/11/06 02:08:27;;;;;;;30.90;22.80;;;6.20;99.90;;;;;;4988749;28;20412;-58
2021/11/06 02:10:53;;;;;;;34.30;22.37;;;6.20;99.90;;;;;;4994280;28;20895;-58
2021/11/06 02:13:19;;;;;;;29.03;22.20;;;6.10;99.90;;;;;;4994210;28;20191;-59
2021/11/06 02:15:46;;;;;;;25.00;20.03;;;6.10;99.90;;;;;;4994397;28;20179;-59
2021/11/06 02:18:12;;;;;;;21.87;17.73;;;6.00;99.90;;;;;;4994352;28;20451;-59
2021/11/06 02:20:42;;;;;;;24.90;19.03;;;6.00;99.90;;;;;;4994349;28;20404;-58
2021/11/06 02:23:08;;;;;;;29.03;22.30;;;6.00;99.90;;;;;;4994104;28;20837;-59
2021/11/06 02:25:33;;;;;;;25.80;20.17;;;6.00;99.90;;;;;;4993922;28;20400;-58
2021/11/06 02:27:59;;;;;;;29.50;21.03;;;6.10;99.90;;;;;;4994400;28;20216;-61
2021/11/06 02:30:25;;;;;;;24.80;19.63;;;6.10;99.90;;;;;;4994252;28;20179;-58
2021/11/06 02:32:52;;;;;;;24.00;18.40;;;6.00;99.90;;;;;;5007804;28;20743;-58
2021/11/06 02:35:19;;;;;;;25.10;19.33;;;6.00;99.90;;;;;;5013925;28;20160;-57
2021/11/06 02:37:44;;;;;;;25.10;19.80;;;6.00;99.90;;;;;;5013368;28;20418;-58
2021/11/06 02:40:11;;;;;;;23.70;19.80;;;6.00;99.90;;;;;;5013431;28;20407;-58
2021/11/06 02:42:37;;;;;;;31.13;22.00;;;6.00;99.90;;;;;;5013392;28;20227;-60
2021/11/06 02:45:06;;;;;;;26.87;21.97;;;5.80;99.90;;;;;;5013460;28;20414;-59
2021/11/06 02:47:32;;;;;;;23.90;18.43;;;5.80;99.90;;;;;;5013171;28;20589;-58
2021/11/06 02:49:58;;;;;;;27.77;23.27;;;5.80;99.90;;;;;;5013374;28;20452;-58
2021/11/06 02:52:24;;;;;;;27.40;21.17;;;5.70;99.90;;;;;;5013250;28;20707;-57
2021/11/06 02:54:49;;;;;;;33.20;21.97;;;5.70;99.90;;;;;;5013576;28;20410;-58
2021/11/06 02:57:15;;;;;;;33.17;23.33;;;5.80;99.90;;;;;;5013543;28;20176;-58
2021/11/06 02:59:41;;;;;;;29.07;22.27;;;5.80;99.90;;;;;;5013597;28;20175;-60
2021/11/06 03:02:06;;;;;;;37.50;25.93;;;5.80;99.90;;;;;;5013034;28;20192;-57
2021/11/06 03:04:37;;;;;;;27.13;21.13;;;5.80;99.90;;;;;;5013157;28;20177;-59
2021/11/06 03:07:04;;;;;;;29.17;21.40;;;5.80;99.90;;;;;;5013296;28;20187;-58
2021/11/06 03:09:31;;;;;;;26.10;21.07;;;5.80;99.90;;;;;;5012948;28;20430;-60
2021/11/06 03:11:58;;;;;;;30.90;24.00;;;5.80;99.90;;;;;;5013146;28;20415;-61
2021/11/06 03:14:25;;;;;;;28.53;22.07;;;5.70;99.90;;;;;;5013421;28;20402;-60
2021/11/06 03:16:52;;;;;;;27.97;21.37;;;5.60;99.90;;;;;;5013078;28;20430;-59
2021/11/06 03:19:17;;;;;;;27.13;21.63;;;5.70;99.90;;;;;;5013059;28;20398;-61
2021/11/06 03:21:43;;;;;;;25.10;19.20;;;5.70;99.90;;;;;;5012963;28;20427;-61
2021/11/06 03:24:09;;;;;;;27.80;20.93;;;5.70;99.90;;;;;;5013049;28;20652;-60
2021/11/06 03:26:35;;;;;;;29.60;21.20;;;5.80;99.90;;;;;;5013015;28;20556;-59
2021/11/06 03:29:00;;;;;;;24.53;19.30;;;5.80;99.90;;;;;;5008870;28;20168;-61
2021/11/06 03:31:26;;;;;;;23.23;18.80;;;5.70;99.90;;;;;;4994042;28;20412;-59
2021/11/06 03:33:52;;;;;;;24.17;18.90;;;5.70;99.90;;;;;;5012923;28;20172;-61
2021/11/06 03:36:19;;;;;;;25.80;19.90;;;5.70;99.90;;;;;;5014074;28;20636;-61
2021/11/06 03:38:45;;;;;;;24.40;19.87;;;5.70;99.90;;;;;;5016603;28;20407;-60
2021/11/06 03:41:11;;;;;;;30.47;22.67;;;5.70;99.90;;;;;;5017567;28;20414;-61
2021/11/06 03:43:37;;;;;;;31.40;21.63;;;5.80;99.90;;;;;;5017078;28;20483;-61
2021/11/06 03:46:03;;;;;;;23.67;18.80;;;5.80;99.90;;;;;;5016644;28;20175;-60
2021/11/06 03:48:28;;;;;;;21.80;17.93;;;5.80;99.90;;;;;;5016421;28;20823;-60
2021/11/06 03:50:54;;;;;;;24.03;19.23;;;5.70;99.90;;;;;;5016355;28;20497;-58
2021/11/06 03:53:20;;;;;;;26.27;20.53;;;5.70;99.90;;;;;;5016338;28;20196;-60
2021/11/06 03:55:46;;;;;;;21.93;16.80;;;5.70;99.90;;;;;;5016358;28;20914;-60
2021/11/06 03:58:11;;;;;;;23.60;19.50;;;5.70;99.90;;;;;;5016288;28;20628;-60
2021/11/06 04:00:37;;;;;;;20.63;17.67;;;5.60;99.90;;;;;;5016238;28;20691;-60
2021/11/06 04:03:03;;;;;;;24.23;19.30;;;5.50;99.90;;;;;;5015845;28;20204;-61
2021/11/06 04:05:28;;;;;;;20.60;16.67;;;5.40;99.90;;;;;;5015891;28;20247;-60
2021/11/06 04:07:54;;;;;;;27.90;21.63;;;5.50;99.90;;;;;;4998169;28;20624;-61
2021/11/06 04:10:19;;;;;;;27.57;20.40;;;5.50;99.90;;;;;;5016320;28;20175;-59
2021/11/06 04:12:45;;;;;;;18.20;15.77;;;5.60;99.90;;;;;;5016278;28;20192;-61
2021/11/06 04:15:12;;;;;;;19.10;16.10;;;5.60;99.90;;;;;;5016782;28;20563;-58
2021/11/06 04:17:38;;;;;;;20.83;17.67;;;5.60;99.90;;;;;;5016310;28;20175;-57
2021/11/06 04:20:06;;;;;;;22.37;17.97;;;5.60;99.90;;;;;;4998372;28;21029;-60
2021/11/06 04:22:31;;;;;;;17.80;15.67;;;5.60;99.90;;;;;;5015841;28;20196;-61
2021/11/06 04:24:57;;;;;;;21.90;17.57;;;5.70;99.90;;;;;;5015682;28;20573;-61
2021/11/06 04:27:23;;;;;;;18.27;15.80;;;5.70;99.90;;;;;;5014578;28;20199;-62
2021/11/06 04:29:48;;;;;;;21.60;18.33;;;5.70;99.90;;;;;;5015744;28;20172;-61
2021/11/06 04:32:14;;;;;;;19.47;16.93;;;5.70;99.90;;;;;;5015797;28;20222;-60
2021/11/06 04:34:40;;;;;;;21.33;17.20;;;5.80;99.90;;;;;;5015681;28;20598;-61
2021/11/06 04:37:05;;;;;;;19.10;16.00;;;5.80;99.90;;;;;;5015582;28;20168;-57
2021/11/06 04:39:31;;;;;;;20.13;16.67;;;5.90;99.90;;;;;;5015310;28;20203;-61
2021/11/06 04:41:57;;;;;;;19.50;15.87;;;5.90;99.90;;;;;;5014404;28;20299;-58
2021/11/06 04:44:22;;;;;;;18.03;15.50;;;5.90;99.90;;;;;;5030183;23;20647;-60
2021/11/06 04:46:48;;;;;;;18.43;15.30;;;5.90;99.90;;;;;;5004536;28;20183;-63
2021/11/06 04:49:13;;;;;;;18.90;16.10;;;5.80;99.90;;;;;;4995913;28;20176;-62
2021/11/06 04:51:39;;;;;;;18.10;15.90;;;5.80;99.90;;;;;;4995156;28;20208;-63
2021/11/06 04:54:05;;;;;;;15.73;14.03;;;5.80;99.90;;;;;;4992303;28;20193;-62
2021/11/06 04:56:30;;;;;;;19.20;16.00;;;5.80;99.90;;;;;;4976100;28;20288;-62
2021/11/06 04:58:56;;;;;;;20.93;16.10;;;5.80;99.90;;;;;;4976293;28;20169;-62
2021/11/06 05:01:22;;;;;;;24.43;18.63;;;5.80;99.90;;;;;;4981713;28;20514;-61
2021/11/06 05:03:47;;;;;;;27.40;20.63;;;5.80;99.90;;;;;;5015189;28;20168;-62
2021/11/06 05:06:13;;;;;;;22.40;17.60;;;5.80;99.90;;;;;;5015009;28;20542;-62
2021/11/06 05:08:39;;;;;;;24.57;19.30;;;5.80;99.90;;;;;;5014839;28;20330;-62
2021/11/06 05:11:05;;;;;;;28.50;22.07;;;5.80;99.90;;;;;;5014685;28;20465;-62
2021/11/06 05:13:30;;;;;;;24.00;20.03;;;5.80;99.90;;;;;;5014990;28;20174;-62
2021/11/06 05:15:58;;;;;;;22.60;16.73;;;5.80;99.90;;;;;;5012980;28;20192;-62
2021/11/06 05:18:24;;;;;;;21.80;17.30;;;5.80;99.90;;;;;;5014863;28;20226;-61
2021/11/06 05:20:50;;;;;;;25.37;20.10;;;5.70;99.90;;;;;;5014660;28;20415;-63
2021/11/06 05:23:16;;;;;;;21.80;17.83;;;5.70;99.90;;;;;;5011928;28;20500;-62
2021/11/06 05:25:44;;;;;;;22.27;17.87;;;5.70;99.90;;;;;;4977140;28;20471;-63
2021/11/06 05:28:10;;;;;;;23.70;18.37;;;5.50;99.90;;;;;;4975370;28;20201;-63
2021/11/06 05:30:36;;;;;;;21.40;16.83;;;5.40;99.90;;;;;;4975646;28;20909;-63
2021/11/06 05:33:03;;;;;;;25.97;19.53;;;5.30;99.90;;;;;;4975513;28;20527;-63
2021/11/06 05:35:28;;;;;;;23.07;17.97;;;5.20;99.90;;;;;;4975528;28;20469;-63
2021/11/06 05:37:54;;;;;;;19.50;16.03;;;5.20;99.90;;;;;;4975041;28;20539;-63
2021/11/06 05:40:19;;;;;;;15.33;13.63;;;5.30;99.90;;;;;;4975195;28;20177;-63
2021/11/06 05:42:45;;;;;;;17.07;15.23;;;5.30;99.90;;;;;;4975384;28;20191;-63
2021/11/06 05:45:11;;;;;;;21.33;16.10;;;5.20;99.90;;;;;;4975113;28;20201;-62
2021/11/06 05:47:37;;;;;;;17.47;15.47;;;5.20;99.90;;;;;;4975258;28;20547;-62
2021/11/06 05:50:09;;;;;;;14.23;12.27;;;5.30;99.90;;;;;;4978313;28;20182;-62
2021/11/06 05:52:35;;;;;;;14.87;12.90;;;5.30;99.90;;;;;;4978610;28;20397;-62
2021/11/06 05:55:03;;;;;;;15.00;12.50;;;5.20;99.90;;;;;;5015095;28;20523;-62
2021/11/06 05:57:29;;;;;;;14.33;12.90;;;5.30;99.90;;;;;;5015154;28;20450;-62
2021/11/06 05:59:54;;;;;;;18.17;14.50;;;5.30;99.90;;;;;;5014938;28;20452;-63
2021/11/06 06:02:20;;;;;;;15.70;13.67;;;5.30;99.90;;;;;;5012525;28;20896;-63
2021/11/06 06:04:46;;;;;;;13.57;12.17;;;5.30;99.90;;;;;;5013819;28;20652;-62
2021/11/06 06:07:11;;;;;;;13.83;12.37;;;5.30;99.90;;;;;;5014039;28;20298;-62
2021/11/06 06:09:37;;;;;;;16.13;14.43;;;5.20;99.90;;;;;;5014536;28;20176;-62
2021/11/06 06:12:03;;;;;;;17.87;15.13;;;5.20;99.90;;;;;;5014046;28;20172;-62
2021/11/06 06:14:29;;;;;;;26.60;19.40;;;5.20;99.90;;;;;;5014034;28;20232;-62
2021/11/06 06:16:54;;;;;;;28.90;20.40;;;5.20;99.90;;;;;;5013421;28;20977;-60
2021/11/06 06:19:20;;;;;;;25.93;19.13;;;5.20;99.90;;;;;;5012379;28;20176;-61
2021/11/06 06:21:45;;;;;;;21.10;17.27;;;5.20;99.90;;;;;;5013969;28;20176;-61
2021/11/06 06:24:11;;;;;;;18.87;14.60;;;5.20;99.90;;;;;;5014164;28;20365;-61
2021/11/06 06:26:37;;;;;;;17.03;14.30;;;5.20;99.90;;;;;;5013580;28;20183;-63
2021/11/06 06:29:02;;;;;;;15.53;12.73;;;5.20;99.90;;;;;;5014053;28;20625;-63
2021/11/06 06:31:28;;;;;;;19.80;16.60;;;5.20;99.90;;;;;;5012004;28;20176;-62
2021/11/06 06:33:54;;;;;;;16.33;13.83;;;5.20;99.90;;;;;;5013713;28;20168;-62
2021/11/06 06:36:20;;;;;;;18.70;14.93;;;5.20;99.90;;;;;;5013189;28;20734;-62
2021/11/06 06:38:45;;;;;;;20.63;16.33;;;5.30;99.90;;;;;;5013450;28;20180;-62
2021/11/06 06:41:11;;;;;;;19.57;16.23;;;5.20;99.90;;;;;;5013378;28;20768;-61
2021/11/06 06:43:37;;;;;;;14.67;13.17;;;5.10;99.90;;;;;;5013820;28;20179;-63
2021/11/06 06:46:03;;;;;;;16.20;14.47;;;5.10;99.90;;;;;;5013206;28;20302;-63
2021/11/06 06:48:29;;;;;;;17.73;14.10;;;5.00;99.90;;;;;;5013093;28;20164;-62
2021/11/06 06:50:54;;;;;;;17.10;14.23;;;5.10;99.90;;;;;;5012425;28;20257;-62
2021/11/06 06:53:21;;;;;;;16.73;14.83;;;5.20;99.90;;;;;;5013214;28;20410;-63
2021/11/06 06:55:47;;;;;;;17.53;14.53;;;5.20;99.90;;;;;;5013131;28;20192;-63
2021/11/06 06:58:13;;;;;;;19.10;14.87;;;5.30;99.90;;;;;;5012662;28;20454;-62
2021/11/06 07:00:39;;;;;;;18.07;15.27;;;5.40;99.90;;;;;;5012972;28;20414;-62
2021/11/06 07:03:04;;;;;;;13.70;11.40;;;5.40;99.90;;;;;;5013115;28;20176;-62
2021/11/06 07:05:31;;;;;;;13.37;11.93;;;5.30;99.90;;;;;;5013257;28;20227;-61
2021/11/06 07:07:57;;;;;;;13.10;11.63;;;5.20;99.90;;;;;;5013382;28;20182;-62
2021/11/06 07:10:24;;;;;;;15.20;12.60;;;5.10;99.90;;;;;;5013088;28;20415;-62
2021/11/06 07:12:51;;;;;;;13.67;12.23;;;5.30;99.90;;;;;;5016269;28;20411;-62
2021/11/06 07:15:16;;;;;;;15.40;12.40;;;5.40;99.90;;;;;;5017407;28;20466;-62
2021/11/06 07:17:42;;;;;;;21.30;17.00;;;5.50;99.90;;;;;;5017265;28;20481;-63
2021/11/06 07:20:09;;;;;;;29.93;21.43;;;5.60;99.90;;;;;;5016958;28;20160;-63
2021/11/06 07:22:35;;;;;;;175.27;114.60;;;5.60;99.90;;;;;;5017294;28;20175;-62
2021/11/06 07:25:02;;;;;;;23.67;19.23;;;5.50;99.90;;;;;;5017036;28;20419;-62
2021/11/06 07:27:28;;;;;;;22.20;19.90;;;5.50;99.90;;;;;;4997024;28;20555;-62
2021/11/06 07:29:54;;;;;;;16.57;12.47;;;5.60;99.90;;;;;;4978313;28;20869;-61
2021/11/06 07:32:20;;;;;;;19.17;12.67;;;5.50;99.90;;;;;;4994256;28;20187;-62
2021/11/06 07:34:45;;;;;;;17.40;12.80;;;5.50;99.90;;;;;;5016684;28;20192;-62
2021/11/06 07:37:11;;;;;;;17.23;14.93;;;5.20;99.90;;;;;;5008211;28;20565;-62
2021/11/06 07:39:37;;;;;;;15.97;11.83;;;5.30;99.90;;;;;;4988540;28;20188;-62
2021/11/06 07:42:03;;;;;;;15.30;11.70;;;5.30;99.90;;;;;;4996875;28;20696;-62
2021/11/06 07:44:28;;;;;;;13.30;10.93;;;5.50;99.90;;;;;;4996826;28;20232;-62
2021/11/06 07:46:54;;;;;;;15.43;12.30;;;5.60;99.90;;;;;;4997079;28;20416;-62
2021/11/06 07:49:20;;;;;;;16.67;12.97;;;5.30;99.90;;;;;;4997324;28;20259;-62
2021/11/06 07:51:46;;;;;;;15.60;11.03;;;5.50;99.90;;;;;;4997203;28;20443;-62
2021/11/06 07:54:12;;;;;;;15.80;13.27;;;5.40;99.90;;;;;;4997090;28;20215;-61
2021/11/06 07:56:38;;;;;;;14.70;11.37;;;5.60;99.90;;;;;;4996643;28;20192;-62
2021/11/06 07:59:07;;;;;;;22.83;18.30;;;5.90;99.90;;;;;;4996599;28;20171;-62
2021/11/06 08:01:33;;;;;;;17.23;14.20;;;5.90;99.90;;;;;;4998582;28;20423;-62
2021/11/06 08:03:59;;;;;;;15.93;13.07;;;6.00;99.90;;;;;;5016211;28;20422;-63
2021/11/06 08:06:24;;;;;;;16.57;11.23;;;6.20;99.90;;;;;;5016485;28;20198;-63
2021/11/06 08:08:50;;;;;;;14.97;11.70;;;6.20;99.90;;;;;;5016325;28;20272;-61
2021/11/06 08:11:16;;;;;;;14.40;11.77;;;6.10;99.90;;;;;;5016491;28;20180;-60
2021/11/06 08:13:42;;;;;;;16.00;12.03;;;6.10;99.90;;;;;;5016040;28;20172;-62
2021/11/06 08:16:07;;;;;;;19.90;12.70;;;6.20;99.90;;;;;;5016156;28;20366;-61
2021/11/06 08:18:33;;;;;;;14.60;11.00;;;6.30;99.90;;;;;;5015761;28;20486;-60
2021/11/06 08:20:59;;;;;;;14.40;11.97;;;6.50;99.90;;;;;;5015954;28;20231;-63
2021/11/06 08:23:25;;;;;;;17.10;13.33;;;6.80;99.90;;;;;;5015828;28;20187;-62
2021/11/06 08:25:51;;;;;;;14.17;11.80;;;7.00;99.90;;;;;;5014317;28;20200;-62
2021/11/06 08:28:17;;;;;;;14.00;10.90;;;6.90;99.90;;;;;;5015792;28;20411;-62
2021/11/06 08:30:43;;;;;;;13.60;9.83;;;6.90;99.90;;;;;;5016394;28;20414;-62
2021/11/06 08:33:10;;;;;;;16.97;12.83;;;6.90;99.90;;;;;;5014362;28;20452;-62
2021/11/06 08:35:37;;;;;;;15.17;12.10;;;6.60;99.90;;;;;;5016046;28;20203;-62
2021/11/06 08:38:04;;;;;;;17.53;12.23;;;6.50;99.90;;;;;;5015745;28;20943;-62
2021/11/06 08:40:29;;;;;;;17.47;12.00;;;6.50;99.90;;;;;;5015515;28;20417;-62
2021/11/06 08:42:55;;;;;;;19.97;12.93;;;6.70;99.90;;;;;;5015878;28;20486;-62
2021/11/06 08:45:22;;;;;;;20.57;14.03;;;6.90;99.90;;;;;;5015727;28;20227;-61
2021/11/06 08:47:48;;;;;;;18.13;12.70;;;7.10;99.90;;;;;;5015737;28;20417;-61
2021/11/06 08:50:18;;;;;;;15.60;12.20;;;6.90;99.90;;;;;;5014362;28;20501;-61
2021/11/06 08:52:45;;;;;;;17.83;12.77;;;7.10;99.90;;;;;;5015610;28;20518;-61
2021/11/06 08:55:11;;;;;;;19.60;13.00;;;7.00;99.90;;;;;;5004192;28;20812;-62
2021/11/06 08:57:39;;;;;;;20.47;13.70;;;7.10;99.90;;;;;;5003886;28;20460;-61
2021/11/06 09:00:12;;;;;;;19.17;13.67;;;7.20;99.90;;;;;;4994672;28;20634;-61
2021/11/06 09:02:38;;;;;;;18.20;12.13;;;7.20;99.90;;;;;;4996338;28;20400;-61
2021/11/06 09:05:05;;;;;;;18.67;12.60;;;7.10;99.90;;;;;;4996567;28;20423;-61
2021/11/06 09:07:33;;;;;;;17.20;12.73;;;6.90;99.90;;;;;;4990319;28;20428;-60
2021/11/06 09:10:05;;;;;;;18.17;12.17;;;7.30;99.90;;;;;;4977755;28;20611;-61
2021/11/06 09:12:30;;;;;;;23.80;13.17;;;7.60;99.90;;;;;;4978974;28;20474;-61
2021/11/06 09:14:56;;;;;;;21.03;13.57;;;7.90;99.90;;;;;;4977533;28;20460;-63
2021/11/06 09:17:21;;;;;;;17.93;12.17;;;8.10;99.90;;;;;;4976442;28;20558;-63
2021/11/06 09:19:47;;;;;;;19.47;12.40;;;8.10;99.90;;;;;;4976215;28;20199;-61
2021/11/06 09:22:13;;;;;;;20.00;13.30;;;7.90;99.90;;;;;;4977070;28;20162;-61
2021/11/06 09:24:40;;;;;;;25.00;15.60;;;7.70;99.90;;;;;;4975705;28;20854;-61
2021/11/06 09:27:06;;;;;;;23.80;15.13;;;7.60;99.90;;;;;;5007742;28;20784;-63
2021/11/06 09:29:32;;;;;;;20.13;12.60;;;7.60;99.90;;;;;;5014823;28;20400;-63
2021/11/06 09:31:57;;;;;;;20.13;13.57;;;7.60;99.90;;;;;;4988640;28;20922;-62
2021/11/06 09:34:23;;;;;;;18.53;13.70;;;7.90;99.90;;;;;;4975075;28;20205;-62
2021/11/06 09:36:49;;;;;;;18.20;13.80;;;8.10;99.90;;;;;;4975729;28;20220;-62
2021/11/06 09:39:15;;;;;;;17.07;14.00;;;8.20;99.90;;;;;;4975447;28;20169;-63
2021/11/06 09:41:41;;;;;;;15.30;12.00;;;8.10;99.90;;;;;;4975520;28;20178;-63
2021/11/06 09:44:08;;;;;;;18.27;13.43;;;8.20;99.90;;;;;;4975338;28;20192;-63
2021/11/06 09:46:34;;;;;;;17.63;13.13;;;8.40;99.90;;;;;;4975649;28;20797;-61
2021/11/06 09:49:00;;;;;;;18.83;13.43;;;8.70;99.90;;;;;;4975418;28;20417;-63
2021/11/06 09:51:26;;;;;;;17.13;12.70;;;8.60;99.90;;;;;;4975230;28;20411;-62
2021/11/06 09:53:55;;;;;;;16.80;13.53;;;8.50;99.90;;;;;;4975020;28;20492;-62
2021/11/06 09:56:24;;;;;;;15.73;11.93;;;8.80;99.90;;;;;;4994251;28;20503;-62
2021/11/06 09:58:54;;;;;;;15.93;12.90;;;8.80;99.90;;;;;;5014630;28;20772;-61
2021/11/06 10:01:19;;;;;;;16.17;12.60;;;8.60;99.90;;;;;;5012560;28;20456;-63
2021/11/06 10:03:45;;;;;;;17.30;13.30;;;8.80;99.90;;;;;;5014600;28;20429;-63
2021/11/06 10:06:25;;;;;;;16.37;12.90;;;9.10;99.90;;;;;;5014784;28;20169;-63
2021/11/06 10:08:53;;;;;;;15.30;12.40;;;9.30;99.90;;;;;;5014247;28;20160;-63
2021/11/06 10:11:21;;;;;;;17.77;13.27;;;9.20;99.90;;;;;;5014136;28;20400;-63
2021/11/06 10:14:03;;;;;;;16.50;13.70;;;8.70;99.90;;;;;;5013952;28;20410;-62
2021/11/06 10:16:41;;;;;;;17.87;12.17;;;8.70;99.90;;;;;;5013508;28;20461;-63
2021/11/06 10:19:34;;;;;;;21.10;15.60;;;8.80;99.90;;;;;;5012634;28;20411;-63
2021/11/06 10:22:18;;;;;;;15.73;12.60;;;9.00;99.90;;;;;;5008110;28;20414;-63
2021/11/06 10:24:47;;;;;;;18.00;13.60;;;9.20;99.90;;;;;;5012008;28;20461;-63
2021/11/06 10:27:23;;;;;;;15.77;12.63;;;9.20;99.90;;;;;;5013668;28;20464;-62
2021/11/06 10:30:15;;;;;;;14.20;11.20;;;9.20;99.90;;;;;;5013781;28;20490;-62
2021/11/06 10:32:45;;;;;;;13.90;10.57;;;9.30;99.90;;;;;;5012293;28;20476;-63
2021/11/06 10:35:12;;;;;;;17.67;14.00;;;9.20;99.90;;;;;;5013337;28;20958;-62
2021/11/06 10:37:38;;;;;;;18.57;16.03;;;9.30;99.90;;;;;;5013690;28;20461;-62
2021/11/06 10:40:09;;;;;;;18.87;14.30;;;9.50;99.90;;;;;;5013204;28;20834;-62
2021/11/06 10:42:35;;;;;;;16.40;13.67;;;9.50;99.90;;;;;;5013658;28;20776;-63
2021/11/06 10:45:08;;;;;;;15.10;12.27;;;10.00;99.90;;;;;;5047543;23;21074;-60
2021/11/06 10:48:13;;;;;;;13.97;11.27;;;10.00;99.90;;;;;;5036765;28;20432;-59
2021/11/06 10:50:41;;;;;;;13.07;10.10;;;9.80;99.90;;;;;;4994308;28;20413;-60
2021/11/06 10:53:09;;;;;;;13.07;11.33;;;9.90;99.90;;;;;;5029119;28;20862;-56
2021/11/06 10:55:37;;;;;;;15.80;11.30;;;10.10;99.90;;;;;;5022192;28;21009;-60
2021/11/06 10:58:04;;;;;;;14.37;12.40;;;10.20;99.90;;;;;;5005329;28;20564;-57
2021/11/06 11:00:30;;;;;;;17.20;12.93;;;10.10;99.90;;;;;;4996458;28;20514;-58
2021/11/06 11:03:23;;;;;;;15.63;12.63;;;10.20;99.90;;;;;;4997256;28;20492;-59
2021/11/06 11:05:49;;;;;;;18.13;14.23;;;10.10;99.90;;;;;;4997347;28;20424;-59
2021/11/06 11:08:15;;;;;;;16.50;13.73;;;10.00;99.90;;;;;;5003874;28;20791;-60
2021/11/06 11:10:42;;;;;;;15.57;13.13;;;9.60;99.90;;;;;;5016892;28;20404;-59
2021/11/06 11:13:12;;;;;;;17.63;13.70;;;9.40;99.90;;;;;;5016685;28;20202;-60
2021/11/06 11:15:43;;;;;;;18.47;15.60;;;9.80;99.90;;;;;;5016191;28;20454;-60
2021/11/06 11:18:30;;;;;;;18.60;15.07;;;10.10;99.90;;;;;;5016485;28;20465;-60
2021/11/06 11:21:17;;;;;;;17.10;14.40;;;10.40;99.90;;;;;;5016716;28;20865;-60
2021/11/06 11:23:49;;;;;;;19.43;15.50;;;11.20;99.90;;;;;;5014907;28;20387;-58
2021/11/06 11:26:17;;;;;;;21.63;16.00;;;11.20;99.90;;;;;;5015423;28;20479;-59
2021/11/06 11:28:43;;;;;;;17.67;15.57;;;11.80;99.90;;;;;;5016024;28;20402;-60
2021/11/06 11:31:08;;;;;;;17.27;14.83;;;13.00;99.90;;;;;;5015922;28;20408;-59
2021/11/06 11:33:36;;;;;;;18.77;14.17;;;15.10;99.90;;;;;;5015994;28;20160;-60
2021/11/06 11:36:03;;;;;;;17.23;15.07;;;16.00;99.90;;;;;;5014692;28;20441;-59
2021/11/06 11:38:29;;;;;;;18.90;16.57;;;17.30;99.90;;;;;;5014498;28;20482;-60
2021/11/06 11:41:10;;;;;;;16.30;14.13;;;18.40;99.00;;;;;;5013636;28;20394;-60
2021/11/06 11:44:00;;;;;;;17.10;15.40;;;19.40;97.40;;;;;;5015037;28;20430;-60
2021/11/06 11:46:56;;;;;;;18.90;15.20;;;20.10;95.60;;;;;;5016126;28;20465;-60
2021/11/06 11:49:29;;;;;;;17.43;15.17;;;19.80;95.00;;;;;;5015221;28;20410;-60
2021/11/06 11:51:55;;;;;;;15.87;14.27;;;20.20;94.70;;;;;;5014222;28;20390;-59
2021/11/06 11:54:20;;;;;;;16.33;14.53;;;20.60;93.50;;;;;;5014212;28;20400;-57
2021/11/06 11:56:46;;;;;;;17.70;14.33;;;20.10;93.60;;;;;;5010477;28;20570;-58
2021/11/06 11:59:32;;;;;;;15.77;14.17;;;19.00;94.70;;;;;;5006803;28;20267;-59
2021/11/06 12:02:29;;;;;;;17.43;15.30;;;19.90;94.70;;;;;;4999124;28;20304;-59
2021/11/06 12:05:17;;;;;;;16.23;14.53;;;19.80;94.50;;;;;;4989532;28;20466;-59
2021/11/06 12:07:46;;;;;;;17.80;15.93;;;19.50;94.30;;;;;;5014471;28;20407;-59
2021/11/06 12:10:27;;;;;;;17.33;14.23;;;19.50;94.70;;;;;;5018119;28;20452;-58
2021/11/06 12:12:53;;;;;;;14.80;13.30;;;19.10;94.90;;;;;;5018846;28;20493;-58
2021/11/06 12:15:20;;;;;;;16.50;14.90;;;20.10;94.20;;;;;;5017432;28;20426;-59
2021/11/06 12:17:46;;;;;;;16.47;14.70;;;21.40;92.70;;;;;;5018101;28;20446;-59
2021/11/06 12:20:24;;;;;;;17.47;15.67;;;20.40;92.60;;;;;;5018456;28;20403;-59
2021/11/06 12:22:50;;;;;;;16.50;14.00;;;19.50;93.80;;;;;;5018330;28;20418;-59
2021/11/06 12:25:18;;;;;;;17.60;15.70;;;20.60;93.20;;;;;;5017982;28;20434;-60
2021/11/06 12:27:58;;;;;;;16.23;14.63;;;21.30;91.70;;;;;;5018835;28;20180;-59
2021/11/06 12:30:29;;;;;;;18.70;16.80;;;21.90;91.00;;;;;;5018285;28;20393;-60
2021/11/06 12:32:58;;;;;;;16.13;14.63;;;21.50;90.50;;;;;;5017836;28;20406;-58
2021/11/06 12:35:28;;;;;;;16.17;14.37;;;21.40;91.10;;;;;;5017726;28;20426;-60
2021/11/06 12:37:58;;;;;;;15.37;13.90;;;20.70;90.50;;;;;;5017946;28;20421;-60